Time;durP1;ratioP1;P1;durP2;ratioP2;P2;SDS_P1;SDS_P2;PMS_P1;PMS_P2;Temp;Humidity;BMP_temperature;BMP_pressure;BME280_temperature;BME280_humidity;BME280_pressure;Samples;Min_cycle;Max_cycle;Signal;HPM_P1;HPM_P2
2022/07/14 00:01:20;;;;;;;;;;;19.70;73.60;;;;;;5014989;28;20280;-78
2022/07/14 00:03:46;;;;;;;;;;;19.70;73.90;;;;;;5012798;28;19964;-77
2022/07/14 00:06:12;;;;;;;;;;;19.70;73.70;;;;;;5006957;28;19921;-77
2022/07/14 00:08:38;;;;;;;;;;;19.70;73.30;;;;;;5023793;28;19935;-77
2022/07/14 00:11:04;;;;;;;;;;;19.60;73.60;;;;;;5033710;28;19920;-78
2022/07/14 00:13:29;;;;;;;;;;;19.60;73.10;;;;;;5012641;28;20016;-78
2022/07/14 00:15:55;;;;;;;;;;;19.60;73.80;;;;;;5014648;28;19941;-78
2022/07/14 00:18:21;;;;;;;;;;;19.60;73.20;;;;;;5006219;28;19910;-78
2022/07/14 00:20:46;;;;;;;;;;;19.50;73.60;;;;;;5011340;28;19993;-76
2022/07/14 00:23:12;;;;;;;;;;;19.50;73.60;;;;;;5020138;28;19913;-78
2022/07/14 00:25:37;;;;;;;;;;;19.50;73.40;;;;;;5032938;28;19951;-77
2022/07/14 00:28:03;;;;;;;;;;;19.50;73.20;;;;;;5014456;28;19921;-78
2022/07/14 00:30:28;;;;;;;;;;;19.30;74.20;;;;;;5013216;28;20000;-77
2022/07/14 00:32:54;;;;;;;;;;;19.30;73.80;;;;;;5020180;28;19909;-78
2022/07/14 00:35:20;;;;;;;;;;;19.20;74.30;;;;;;5032589;28;19913;-78
2022/07/14 00:37:45;;;;;;;;;;;19.20;74.80;;;;;;5032443;28;19913;-78
2022/07/14 00:40:11;;;;;;;;;;;19.10;74.80;;;;;;5034369;28;19910;-77
2022/07/14 00:42:38;;;;;;;;;;;19.20;74.30;;;;;;5013734;28;19913;-78
2022/07/14 00:45:07;;;;;;;;;;;19.20;73.80;;;;;;5017984;28;19977;-78
2022/07/14 00:47:33;;;;;;;;;;;19.10;73.90;;;;;;5024585;28;19909;-77
2022/07/14 00:49:59;;;;;;;;;;;19.10;74.60;;;;;;5016021;28;19923;-77
2022/07/14 00:52:26;;;;;;;;;;;18.90;75.30;;;;;;5019138;28;19990;-78
2022/07/14 00:54:52;;;;;;;;;;;18.90;74.80;;;;;;5010713;28;20011;-78
2022/07/14 00:57:18;;;;;;;;;;;19.00;74.40;;;;;;5011818;28;19913;-78
2022/07/14 00:59:44;;;;;;;;;;;19.10;73.60;;;;;;5018824;28;19913;-78
2022/07/14 01:02:10;;;;;;;;;;;18.90;75.00;;;;;;5033217;28;20034;-78
2022/07/14 01:04:35;;;;;;;;;;;18.80;75.10;;;;;;5038315;28;19947;-79
2022/07/14 01:07:00;;;;;;;;;;;18.90;74.40;;;;;;5034053;28;20344;-79
2022/07/14 01:09:26;;;;;;;;;;;18.80;74.80;;;;;;5033311;28;19909;-78
2022/07/14 01:11:51;;;;;;;;;;;18.60;75.80;;;;;;5014500;28;19910;-79
2022/07/14 01:14:17;;;;;;;;;;;18.60;75.60;;;;;;5021507;28;20182;-79
2022/07/14 01:16:42;;;;;;;;;;;18.50;75.80;;;;;;5032548;28;20007;-78
2022/07/14 01:19:08;;;;;;;;;;;18.50;75.80;;;;;;5032647;28;19992;-77
2022/07/14 01:21:34;;;;;;;;;;;18.60;75.80;;;;;;5032880;28;19988;-77
2022/07/14 01:24:00;;;;;;;;;;;18.60;74.70;;;;;;5030557;28;19909;-77
2022/07/14 01:26:25;;;;;;;;;;;18.50;75.50;;;;;;5014722;28;20028;-77
2022/07/14 01:28:50;;;;;;;;;;;18.40;76.10;;;;;;5026514;28;20017;-77
2022/07/14 01:31:16;;;;;;;;;;;18.50;75.70;;;;;;5013222;28;19975;-76
2022/07/14 01:33:42;;;;;;;;;;;18.50;75.30;;;;;;5005210;28;19917;-77
2022/07/14 01:36:07;;;;;;;;;;;18.50;75.20;;;;;;5024865;28;20017;-77
2022/07/14 01:38:33;;;;;;;;;;;18.40;75.80;;;;;;5030877;28;20015;-78
2022/07/14 01:40:58;;;;;;;;;;;18.30;75.90;;;;;;5017163;28;20119;-78
2022/07/14 01:43:24;;;;;;;;;;;18.40;76.20;;;;;;5015285;28;20237;-77
2022/07/14 01:45:49;;;;;;;;;;;18.20;76.00;;;;;;5011483;28;19910;-76
2022/07/14 01:48:14;;;;;;;;;;;18.10;76.40;;;;;;5012340;28;20233;-77
2022/07/14 01:50:40;;;;;;;;;;;18.10;76.50;;;;;;5011549;28;20016;-77
2022/07/14 01:53:05;;;;;;;;;;;18.30;76.30;;;;;;5008691;28;19913;-77
2022/07/14 01:55:31;;;;;;;;;;;18.30;76.20;;;;;;5021140;28;20016;-78
2022/07/14 01:57:56;;;;;;;;;;;18.30;76.50;;;;;;5022236;28;19940;-77
2022/07/14 02:00:22;;;;;;;;;;;18.30;76.80;;;;;;5021887;28;20291;-78
2022/07/14 02:02:47;;;;;;;;;;;18.50;76.10;;;;;;5011662;28;20284;-77
2022/07/14 02:05:12;;;;;;;;;;;18.50;76.00;;;;;;5011729;28;19952;-77
2022/07/14 02:07:38;;;;;;;;;;;18.60;76.00;;;;;;5007922;28;19979;-77
2022/07/14 02:12:48;;;;;;;;;;;18.50;76.10;;;;;;4992562;28;19916;-77
2022/07/14 02:15:14;;;;;;;;;;;18.50;76.20;;;;;;4992007;28;20249;-77
2022/07/14 02:17:39;;;;;;;;;;;18.50;76.00;;;;;;5006910;28;19913;-77
2022/07/14 02:20:05;;;;;;;;;;;18.50;75.90;;;;;;5006938;28;20009;-77
2022/07/14 02:22:31;;;;;;;;;;;18.40;76.20;;;;;;5010170;28;19972;-77
2022/07/14 02:24:56;;;;;;;;;;;18.30;76.50;;;;;;5012011;28;19910;-78
2022/07/14 02:27:23;;;;;;;;;;;18.40;76.40;;;;;;5011909;28;20201;-78
2022/07/14 02:29:48;;;;;;;;;;;18.30;76.50;;;;;;5012040;28;19956;-78
2022/07/14 02:32:14;;;;;;;;;;;18.30;76.70;;;;;;5012901;28;19951;-78
2022/07/14 02:34:39;;;;;;;;;;;18.30;76.40;;;;;;5017242;28;19908;-77
2022/07/14 02:37:05;;;;;;;;;;;18.30;76.50;;;;;;5028612;28;19918;-78
2022/07/14 02:39:30;;;;;;;;;;;18.20;76.80;;;;;;5014862;28;19913;-78
2022/07/14 02:41:56;;;;;;;;;;;18.20;76.70;;;;;;5015516;28;19920;-77
2022/07/14 02:44:21;;;;;;;;;;;18.20;77.00;;;;;;5015724;28;20005;-77
2022/07/14 02:46:47;;;;;;;;;;;18.10;76.80;;;;;;5009044;28;20325;-78
2022/07/14 02:49:12;;;;;;;;;;;18.10;76.70;;;;;;5022153;28;19914;-77
2022/07/14 02:51:38;;;;;;;;;;;18.10;76.30;;;;;;5015342;28;19918;-77
2022/07/14 02:54:03;;;;;;;;;;;18.00;76.90;;;;;;5009902;28;20317;-77
2022/07/14 02:56:28;;;;;;;;;;;18.00;77.30;;;;;;5014272;28;19917;-77
2022/07/14 02:58:54;;;;;;;;;;;17.90;77.40;;;;;;5012547;28;20443;-77
2022/07/14 03:01:19;;;;;;;;;;;17.70;77.90;;;;;;5022196;28;19917;-78
2022/07/14 03:03:45;;;;;;;;;;;17.70;78.00;;;;;;5014078;28;19917;-77
2022/07/14 03:06:11;;;;;;;;;;;17.70;77.80;;;;;;5013034;28;19914;-77
2022/07/14 03:08:37;;;;;;;;;;;17.70;78.00;;;;;;5009119;28;19968;-77
2022/07/14 03:11:03;;;;;;;;;;;17.60;78.20;;;;;;5013927;28;19913;-77
2022/07/14 03:13:29;;;;;;;;;;;17.60;78.20;;;;;;5013303;28;19924;-77
2022/07/14 03:15:54;;;;;;;;;;;17.60;78.30;;;;;;5025551;28;19913;-77
2022/07/14 03:18:20;;;;;;;;;;;17.70;78.30;;;;;;5028504;28;19989;-77
2022/07/14 03:20:46;;;;;;;;;;;17.80;78.40;;;;;;5020614;28;19917;-77
2022/07/14 03:23:11;;;;;;;;;;;17.80;77.90;;;;;;5013814;28;19964;-77
2022/07/14 03:25:41;;;;;;;;;;;17.90;77.60;;;;;;5013840;28;20008;-76
2022/07/14 03:28:06;;;;;;;;;;;17.80;77.30;;;;;;5019905;28;20027;-76
2022/07/14 03:30:32;;;;;;;;;;;17.70;77.10;;;;;;5023720;28;20004;-77
2022/07/14 03:32:57;;;;;;;;;;;17.60;77.50;;;;;;5033547;28;20366;-77
2022/07/14 03:35:22;;;;;;;;;;;17.50;78.10;;;;;;5026552;28;20368;-78
2022/07/14 03:37:48;;;;;;;;;;;17.40;77.90;;;;;;5012381;28;20380;-77
2022/07/14 03:40:13;;;;;;;;;;;17.40;78.40;;;;;;5011419;28;19910;-76
2022/07/14 03:42:39;;;;;;;;;;;17.50;77.70;;;;;;5020775;28;19920;-77
2022/07/14 03:45:04;;;;;;;;;;;17.40;78.20;;;;;;5008862;28;19909;-76
2022/07/14 03:47:30;;;;;;;;;;;17.50;77.80;;;;;;5012953;28;19952;-77
2022/07/14 03:49:55;;;;;;;;;;;17.40;78.20;;;;;;5010619;28;20327;-77
2022/07/14 03:52:21;;;;;;;;;;;17.30;78.90;;;;;;5011243;28;20348;-77
2022/07/14 03:54:46;;;;;;;;;;;17.50;77.70;;;;;;5011522;28;19953;-77
2022/07/14 03:57:12;;;;;;;;;;;17.40;77.90;;;;;;5021323;28;19920;-77
2022/07/14 03:59:40;;;;;;;;;;;17.30;78.30;;;;;;5032559;28;20422;-77
2022/07/14 04:02:09;;;;;;;;;;;17.20;78.70;;;;;;5032040;28;19967;-77
2022/07/14 04:04:35;;;;;;;;;;;17.20;78.50;;;;;;5025014;28;19928;-77
2022/07/14 04:07:00;;;;;;;;;;;17.10;78.70;;;;;;5011451;28;20288;-76
2022/07/14 04:09:26;;;;;;;;;;;17.10;78.80;;;;;;5019085;28;19940;-77
2022/07/14 04:11:51;;;;;;;;;;;17.00;79.10;;;;;;5026405;28;20376;-77
2022/07/14 04:14:17;;;;;;;;;;;17.10;78.90;;;;;;5022910;28;19909;-77
2022/07/14 04:16:42;;;;;;;;;;;17.20;78.50;;;;;;5011703;28;19921;-78
2022/07/14 04:19:08;;;;;;;;;;;17.20;78.30;;;;;;5012004;28;20689;-77
2022/07/14 04:21:35;;;;;;;;;;;17.30;78.10;;;;;;5012510;28;19976;-77
2022/07/14 04:24:00;;;;;;;;;;;17.30;78.00;;;;;;5020013;28;20635;-77
2022/07/14 04:26:26;;;;;;;;;;;17.20;78.80;;;;;;5029092;28;19917;-76
2022/07/14 04:28:52;;;;;;;;;;;17.30;78.30;;;;;;5038462;28;19959;-77
2022/07/14 04:31:17;;;;;;;;;;;17.20;78.70;;;;;;5031829;28;20425;-77
2022/07/14 04:33:43;;;;;;;;;;;17.20;78.30;;;;;;5018193;28;19914;-78
2022/07/14 04:36:09;;;;;;;;;;;17.30;78.00;;;;;;5012162;28;20067;-78
2022/07/14 04:38:34;;;;;;;;;;;17.30;78.30;;;;;;5024870;28;20006;-76
2022/07/14 04:41:00;;;;;;;;;;;17.50;77.50;;;;;;5033799;28;20368;-76
2022/07/14 04:43:26;;;;;;;;;;;17.50;77.30;;;;;;5032132;28;19917;-77
2022/07/14 04:45:51;;;;;;;;;;;17.30;77.70;;;;;;5034069;28;20261;-77
2022/07/14 04:48:17;;;;;;;;;;;17.30;77.90;;;;;;5017853;28;19917;-78
2022/07/14 04:53:27;;;;;;;;;;;17.00;78.60;;;;;;5008966;28;19941;-77
2022/07/14 04:55:53;;;;;;;;;;;17.00;78.80;;;;;;5013595;28;19914;-78
2022/07/14 04:58:19;;;;;;;;;;;16.80;79.40;;;;;;5015360;28;20008;-78
2022/07/14 05:00:44;;;;;;;;;;;16.80;79.80;;;;;;5015046;28;19925;-77
2022/07/14 05:03:10;;;;;;;;;;;16.90;79.70;;;;;;5022184;28;19949;-77
2022/07/14 05:05:35;;;;;;;;;;;17.00;79.50;;;;;;4654179;22;20297;-84
2022/07/14 05:08:01;;;;;;;;;;;16.90;79.50;;;;;;5036789;28;19991;-85
2022/07/14 05:10:26;;;;;;;;;;;17.00;79.30;;;;;;5034329;28;20288;-85
2022/07/14 05:12:52;;;;;;;;;;;17.10;79.00;;;;;;5033531;28;19952;-85
2022/07/14 05:15:17;;;;;;;;;;;17.10;78.70;;;;;;5022523;28;20272;-84
2022/07/14 05:17:43;;;;;;;;;;;17.00;79.10;;;;;;5015824;28;20379;-84
2022/07/14 05:20:09;;;;;;;;;;;17.10;78.40;;;;;;5013558;28;20424;-85
2022/07/14 05:22:35;;;;;;;;;;;17.20;78.10;;;;;;5013417;28;19929;-84
2022/07/14 05:25:01;;;;;;;;;;;17.30;78.30;;;;;;5018957;28;19940;-83
2022/07/14 05:27:27;;;;;;;;;;;17.30;77.40;;;;;;5018041;28;19910;-84
2022/07/14 05:29:52;;;;;;;;;;;17.30;77.50;;;;;;5013968;28;20331;-84
2022/07/14 05:32:18;;;;;;;;;;;17.20;78.00;;;;;;5032900;28;19997;-85
2022/07/14 05:34:44;;;;;;;;;;;17.30;77.60;;;;;;5019406;28;19909;-84
2022/07/14 05:37:10;;;;;;;;;;;17.30;77.50;;;;;;5016581;28;19917;-84
2022/07/14 05:39:36;;;;;;;;;;;17.30;77.50;;;;;;5018193;28;20411;-84
2022/07/14 05:42:02;;;;;;;;;;;17.30;77.60;;;;;;5016097;28;19926;-84
2022/07/14 05:44:28;;;;;;;;;;;17.50;76.70;;;;;;5010297;28;19913;-85
2022/07/14 05:46:53;;;;;;;;;;;17.50;77.20;;;;;;5010252;28;20308;-85
2022/07/14 05:49:19;;;;;;;;;;;17.40;76.70;;;;;;4995337;28;19945;-85
2022/07/14 05:51:44;;;;;;;;;;;17.50;76.80;;;;;;4996120;28;19968;-85
2022/07/14 05:54:09;;;;;;;;;;;17.50;76.80;;;;;;4994727;28;19910;-85
2022/07/14 05:56:35;;;;;;;;;;;17.50;77.20;;;;;;4994232;28;20416;-84
2022/07/14 05:59:00;;;;;;;;;;;17.80;75.30;;;;;;5011899;28;20463;-83
2022/07/14 06:01:26;;;;;;;;;;;17.70;76.20;;;;;;5005307;28;20292;-85
2022/07/14 06:03:56;;;;;;;;;;;17.70;76.10;;;;;;5014621;28;20380;-85
2022/07/14 06:06:22;;;;;;;;;;;17.70;76.10;;;;;;4999479;28;19918;-85
2022/07/14 06:08:48;;;;;;;;;;;17.80;75.20;;;;;;4993811;28;19928;-85
2022/07/14 06:11:13;;;;;;;;;;;17.70;75.90;;;;;;5004614;28;19980;-85
2022/07/14 06:13:40;;;;;;;;;;;17.80;75.90;;;;;;5017852;28;19916;-85
2022/07/14 06:16:06;;;;;;;;;;;17.90;75.20;;;;;;5013214;28;19924;-84
2022/07/14 06:18:31;;;;;;;;;;;18.10;74.70;;;;;;5010468;28;19910;-84
2022/07/14 06:20:57;;;;;;;;;;;18.30;73.90;;;;;;5014998;28;19916;-83
2022/07/14 06:23:23;;;;;;;;;;;18.20;73.80;;;;;;5015901;28;19913;-85
2022/07/14 06:25:49;;;;;;;;;;;18.10;74.30;;;;;;5017213;28;19938;-84
2022/07/14 06:28:14;;;;;;;;;;;18.20;74.60;;;;;;5012374;28;20005;-84
2022/07/14 06:30:40;;;;;;;;;;;18.20;74.00;;;;;;5018016;28;19968;-85
2022/07/14 06:33:05;;;;;;;;;;;18.10;74.60;;;;;;5011062;28;20462;-84
2022/07/14 06:35:31;;;;;;;;;;;18.10;75.10;;;;;;5014335;28;19941;-84
2022/07/14 06:37:56;;;;;;;;;;;18.10;74.80;;;;;;5015697;28;19916;-84
2022/07/14 06:40:22;;;;;;;;;;;18.00;75.40;;;;;;5017062;28;19989;-84
2022/07/14 06:42:48;;;;;;;;;;;18.10;75.00;;;;;;5001361;28;19921;-84
2022/07/14 06:45:14;;;;;;;;;;;18.10;75.20;;;;;;5013549;28;20780;-85
2022/07/14 06:47:39;;;;;;;;;;;18.20;75.20;;;;;;4995430;28;19952;-85
2022/07/14 06:50:05;;;;;;;;;;;18.40;74.20;;;;;;4995810;28;20009;-85
2022/07/14 06:52:31;;;;;;;;;;;18.40;74.10;;;;;;5004447;28;19926;-84
2022/07/14 06:55:00;;;;;;;;;;;18.40;74.10;;;;;;5015505;28;19925;-85
2022/07/14 06:57:25;;;;;;;;;;;18.50;73.80;;;;;;5014441;28;20292;-84
2022/07/14 06:59:51;;;;;;;;;;;18.50;74.30;;;;;;5013396;28;19955;-84
2022/07/14 07:02:18;;;;;;;;;;;18.80;73.40;;;;;;4996256;28;20347;-84
2022/07/14 07:04:44;;;;;;;;;;;18.90;72.10;;;;;;5011825;28;20113;-86
2022/07/14 07:07:09;;;;;;;;;;;18.80;72.40;;;;;;5010807;28;19949;-85
2022/07/14 07:09:35;;;;;;;;;;;18.60;72.10;;;;;;5013336;28;19909;-86
2022/07/14 07:12:01;;;;;;;;;;;18.60;72.50;;;;;;4999374;28;19910;-85
2022/07/14 07:14:26;;;;;;;;;;;18.40;73.50;;;;;;5004689;28;19919;-84
2022/07/14 07:16:52;;;;;;;;;;;18.20;73.90;;;;;;5028631;28;19921;-85
2022/07/14 07:19:18;;;;;;;;;;;18.20;74.10;;;;;;5020296;28;20276;-85
2022/07/14 07:21:43;;;;;;;;;;;18.20;74.00;;;;;;5015184;28;19910;-85
2022/07/14 07:24:12;;;;;;;;;;;18.30;74.40;;;;;;5016171;28;19925;-85
2022/07/14 07:26:38;;;;;;;;;;;18.60;73.00;;;;;;5008856;28;19918;-85
2022/07/14 07:29:04;;;;;;;;;;;18.70;73.50;;;;;;5017877;28;19982;-85
2022/07/14 07:31:30;;;;;;;;;;;19.10;70.90;;;;;;5017208;28;19914;-84
2022/07/14 07:33:56;;;;;;;;;;;19.20;69.50;;;;;;5013260;28;19916;-82
2022/07/14 07:36:21;;;;;;;;;;;19.20;70.10;;;;;;5012847;28;20013;-85
2022/07/14 07:38:47;;;;;;;;;;;19.10;71.00;;;;;;5012721;28;19925;-85
2022/07/14 07:41:12;;;;;;;;;;;19.10;71.20;;;;;;5006472;28;19922;-85
2022/07/14 07:43:38;;;;;;;;;;;19.10;70.90;;;;;;5014276;28;19909;-85
2022/07/14 07:46:05;;;;;;;;;;;19.30;70.40;;;;;;5014154;28;20009;-84
2022/07/14 07:48:30;;;;;;;;;;;19.30;70.70;;;;;;5011847;28;19913;-85
2022/07/14 07:50:56;;;;;;;;;;;19.50;69.70;;;;;;5007416;28;19913;-85
2022/07/14 07:53:22;;;;;;;;;;;19.60;69.50;;;;;;4992160;28;20381;-85
2022/07/14 07:55:47;;;;;;;;;;;19.60;68.60;;;;;;5006464;28;19913;-86
2022/07/14 07:58:13;;;;;;;;;;;19.60;68.40;;;;;;5010439;28;20346;-85
2022/07/14 08:00:38;;;;;;;;;;;19.70;67.70;;;;;;5003448;28;20023;-85
2022/07/14 08:03:04;;;;;;;;;;;19.70;68.20;;;;;;4993222;28;20326;-85
2022/07/14 08:05:31;;;;;;;;;;;19.90;67.90;;;;;;4998503;28;19924;-85
2022/07/14 08:07:56;;;;;;;;;;;19.90;66.10;;;;;;5008130;28;19981;-85
2022/07/14 08:10:22;;;;;;;;;;;20.10;65.50;;;;;;5006972;28;20017;-85
2022/07/14 08:12:47;;;;;;;;;;;20.10;65.20;;;;;;5013772;28;19920;-85
2022/07/14 08:15:13;;;;;;;;;;;20.20;65.30;;;;;;5012505;28;19980;-85
2022/07/14 08:17:39;;;;;;;;;;;20.20;61.90;;;;;;5012850;28;19910;-85
2022/07/14 08:20:06;;;;;;;;;;;20.40;61.10;;;;;;5005475;28;19914;-84
2022/07/14 08:22:31;;;;;;;;;;;20.50;60.20;;;;;;5008289;28;20584;-84
2022/07/14 08:24:57;;;;;;;;;;;20.50;58.30;;;;;;5012407;28;19910;-85
2022/07/14 08:27:23;;;;;;;;;;;20.50;59.50;;;;;;5003744;28;19914;-84
2022/07/14 08:29:49;;;;;;;;;;;20.50;59.30;;;;;;4992652;28;19949;-85
2022/07/14 08:32:15;;;;;;;;;;;20.50;60.00;;;;;;5001929;28;19921;-85
2022/07/14 08:34:40;;;;;;;;;;;20.30;59.80;;;;;;5011669;28;20399;-85
2022/07/14 08:37:06;;;;;;;;;;;20.10;60.70;;;;;;5011491;28;19917;-85
2022/07/14 08:39:32;;;;;;;;;;;20.20;61.40;;;;;;4998525;28;19909;-85
2022/07/14 08:42:01;;;;;;;;;;;20.10;61.80;;;;;;4994020;28;20013;-85
2022/07/14 08:44:26;;;;;;;;;;;20.30;59.60;;;;;;5009345;28;19940;-85
2022/07/14 08:46:56;;;;;;;;;;;20.10;61.00;;;;;;5012538;28;19925;-85
2022/07/14 08:49:22;;;;;;;;;;;20.10;60.20;;;;;;5026803;28;19925;-83
2022/07/14 08:51:48;;;;;;;;;;;20.00;61.40;;;;;;5010642;28;19914;-85
2022/07/14 08:54:13;;;;;;;;;;;19.90;60.80;;;;;;5006227;28;19921;-85
2022/07/14 08:56:39;;;;;;;;;;;19.90;60.00;;;;;;5012680;28;19922;-85
2022/07/14 08:59:05;;;;;;;;;;;19.90;60.70;;;;;;5026660;28;19917;-84
2022/07/14 09:01:31;;;;;;;;;;;19.80;60.40;;;;;;5017320;28;20063;-85
2022/07/14 09:03:57;;;;;;;;;;;19.80;62.20;;;;;;5002791;28;20384;-85
2022/07/14 09:06:45;;;;;;;;;;;19.80;62.10;;;;;;5007815;28;19961;-84
2022/07/14 09:09:13;;;;;;;;;;;20.10;60.50;;;;;;5012723;28;19914;-85
2022/07/14 09:11:47;;;;;;;;;;;20.10;60.90;;;;;;5012747;28;20388;-85
2022/07/14 09:14:13;;;;;;;;;;;20.10;61.60;;;;;;5006218;28;20008;-85
2022/07/14 09:16:38;;;;;;;;;;;20.10;62.30;;;;;;5013788;28;19984;-84
2022/07/14 09:19:08;;;;;;;;;;;20.10;61.70;;;;;;5015554;28;19916;-84
2022/07/14 09:21:34;;;;;;;;;;;20.10;61.70;;;;;;5012716;28;19909;-85
2022/07/14 09:23:59;;;;;;;;;;;20.20;59.70;;;;;;5013742;28;20368;-85
2022/07/14 09:26:25;;;;;;;;;;;20.40;57.40;;;;;;5010411;28;19913;-85
2022/07/14 09:28:51;;;;;;;;;;;20.50;54.90;;;;;;5006405;28;19913;-85
2022/07/14 09:31:21;;;;;;;;;;;20.60;56.00;;;;;;5027519;28;20032;-85
2022/07/14 09:33:48;;;;;;;;;;;20.60;55.90;;;;;;5008904;28;19913;-83
2022/07/14 09:36:23;;;;;;;;;;;20.80;54.30;;;;;;5012780;28;19918;-83
2022/07/14 09:38:49;;;;;;;;;;;20.70;54.30;;;;;;5013426;28;19910;-83
2022/07/14 09:41:15;;;;;;;;;;;20.80;53.00;;;;;;5013746;28;19914;-83
2022/07/14 09:44:00;;;;;;;;;;;20.60;55.00;;;;;;5008775;28;19914;-84
2022/07/14 09:46:45;;;;;;;;;;;20.50;55.40;;;;;;4995183;28;19960;-84
2022/07/14 09:49:12;;;;;;;;;;;20.80;53.40;;;;;;5013600;28;19920;-81
2022/07/14 09:51:51;;;;;;;;;;;20.70;54.20;;;;;;5004624;28;19918;-83
2022/07/14 09:54:36;;;;;;;;;;;20.80;51.70;;;;;;5008905;28;19970;-84
2022/07/14 09:57:02;;;;;;;;;;;20.90;52.30;;;;;;5004250;28;19932;-85
2022/07/14 09:59:27;;;;;;;;;;;21.00;52.20;;;;;;5005571;28;19918;-84
2022/07/14 10:01:53;;;;;;;;;;;21.00;50.80;;;;;;5022264;28;19922;-84
2022/07/14 10:04:20;;;;;;;;;;;21.10;51.20;;;;;;5018242;28;20427;-84
2022/07/14 10:06:46;;;;;;;;;;;21.00;51.60;;;;;;5013226;28;19921;-83
2022/07/14 10:09:11;;;;;;;;;;;21.00;51.90;;;;;;5014387;28;20648;-84
2022/07/14 10:11:37;;;;;;;;;;;21.10;51.40;;;;;;5019420;28;19913;-84
2022/07/14 10:14:03;;;;;;;;;;;21.20;51.00;;;;;;5024506;28;19929;-84
2022/07/14 10:16:33;;;;;;;;;;;21.40;50.10;;;;;;5021201;28;19929;-86
2022/07/14 10:19:00;;;;;;;;;;;21.60;50.30;;;;;;5016711;28;20261;-84
2022/07/14 10:21:26;;;;;;;;;;;21.50;50.10;;;;;;5004085;28;19958;-84
2022/07/14 10:23:52;;;;;;;;;;;21.70;48.70;;;;;;5009753;28;19921;-83
2022/07/14 10:26:18;;;;;;;;;;;21.60;50.90;;;;;;5004961;28;20281;-83
2022/07/14 10:28:43;;;;;;;;;;;21.60;47.40;;;;;;5006074;28;20005;-83
2022/07/14 10:31:17;;;;;;;;;;;21.60;44.80;;;;;;4990355;28;20377;-84
2022/07/14 10:33:58;;;;;;;;;;;21.60;45.40;;;;;;5002898;28;19913;-84
2022/07/14 10:36:31;;;;;;;;;;;21.80;46.20;;;;;;5000542;28;19928;-85
2022/07/14 10:39:08;;;;;;;;;;;21.90;46.60;;;;;;5011101;28;19913;-84
2022/07/14 10:41:52;;;;;;;;;;;21.70;47.00;;;;;;5019195;28;20277;-84
2022/07/14 10:44:20;;;;;;;;;;;21.70;47.00;;;;;;5026514;28;19917;-83
2022/07/14 10:46:46;;;;;;;;;;;22.00;45.60;;;;;;5002791;28;19909;-84
2022/07/14 10:49:13;;;;;;;;;;;22.00;45.00;;;;;;5014031;28;19913;-85
2022/07/14 10:51:50;;;;;;;;;;;21.90;45.70;;;;;;5002836;28;22320;-84
2022/07/14 10:54:22;;;;;;;;;;;21.80;46.00;;;;;;5002992;28;19952;-85
2022/07/14 10:56:48;;;;;;;;;;;22.00;45.50;;;;;;5017311;28;19913;-84
2022/07/14 10:59:25;;;;;;;;;;;22.10;44.50;;;;;;4998043;28;20004;-83
2022/07/14 11:02:10;;;;;;;;;;;22.10;43.90;;;;;;5010837;28;19991;-84
2022/07/14 11:09:32;;;;;;;;;;;22.10;44.80;;;;;;5038781;28;19925;-79
2022/07/14 11:12:07;;;;;;;;;;;22.10;44.40;;;;;;5049238;28;19909;-79
2022/07/14 11:14:37;;;;;;;;;;;22.20;45.10;;;;;;5049252;28;19913;-80
2022/07/14 11:17:02;;;;;;;;;;;22.30;44.30;;;;;;5051702;28;19994;-80
2022/07/14 11:19:28;;;;;;;;;;;22.20;43.70;;;;;;5029212;28;19937;-80
2022/07/14 11:22:12;;;;;;;;;;;22.10;44.30;;;;;;5068343;28;19998;-80
2022/07/14 11:24:53;;;;;;;;;;;22.20;45.10;;;;;;5044280;28;19908;-80
2022/07/14 11:27:27;;;;;;;;;;;22.50;43.40;;;;;;5015984;28;19919;-81
2022/07/14 11:29:55;;;;;;;;;;;22.50;42.70;;;;;;5001695;28;20004;-81
2022/07/14 11:32:32;;;;;;;;;;;22.30;43.90;;;;;;5011248;28;19948;-82
2022/07/14 11:38:00;;;;;;;;;;;22.40;44.90;;;;;;5040163;28;19927;-82
2022/07/14 11:40:46;;;;;;;;;;;22.50;44.90;;;;;;5025622;28;19933;-82
2022/07/14 11:43:30;;;;;;;;;;;22.50;43.50;;;;;;5007282;28;19940;-80
2022/07/14 11:45:56;;;;;;;;;;;22.50;44.90;;;;;;5020897;28;19945;-81
2022/07/14 11:48:27;;;;;;;;;;;22.50;44.80;;;;;;5027149;28;19913;-80
2022/07/14 11:50:59;;;;;;;;;;;22.50;44.20;;;;;;5023836;28;19928;-80
2022/07/14 11:53:27;;;;;;;;;;;22.50;45.20;;;;;;5041304;28;19925;-81
2022/07/14 11:55:54;;;;;;;;;;;22.50;44.60;;;;;;5036583;28;19928;-80
2022/07/14 11:58:22;;;;;;;;;;;22.50;44.70;;;;;;5016906;28;19909;-79
2022/07/14 12:00:54;;;;;;;;;;;22.60;43.20;;;;;;5038510;28;19909;-80
2022/07/14 12:03:20;;;;;;;;;;;22.60;43.30;;;;;;5020478;28;19915;-80
2022/07/14 12:05:45;;;;;;;;;;;22.70;43.80;;;;;;5018830;28;19909;-80
2022/07/14 12:08:12;;;;;;;;;;;22.90;43.00;;;;;;5018720;28;19917;-80
2022/07/14 12:10:42;;;;;;;;;;;22.90;42.90;;;;;;5028630;28;20324;-80
2022/07/14 12:13:08;;;;;;;;;;;22.90;42.50;;;;;;5036922;28;20373;-80
2022/07/14 12:15:34;;;;;;;;;;;23.10;42.60;;;;;;5005005;28;19913;-81
2022/07/14 12:18:01;;;;;;;;;;;23.20;41.40;;;;;;5000690;28;20563;-81
2022/07/14 12:20:34;;;;;;;;;;;23.10;41.20;;;;;;5018575;28;19924;-80
2022/07/14 12:23:00;;;;;;;;;;;23.10;42.50;;;;;;5036184;28;19913;-81
2022/07/14 12:25:26;;;;;;;;;;;23.30;40.40;;;;;;5055421;28;19911;-79
2022/07/14 12:27:52;;;;;;;;;;;23.40;39.80;;;;;;5039703;28;19997;-81
2022/07/14 12:30:17;;;;;;;;;;;23.30;39.90;;;;;;5033609;28;19909;-80
2022/07/14 12:32:44;;;;;;;;;;;23.30;40.00;;;;;;5004384;28;19910;-80
2022/07/14 12:35:10;;;;;;;;;;;23.40;40.80;;;;;;5007919;28;19944;-80
2022/07/14 12:37:36;;;;;;;;;;;23.70;39.90;;;;;;5015364;28;19932;-80
2022/07/14 12:40:02;;;;;;;;;;;23.60;39.60;;;;;;5029575;28;19909;-80
2022/07/14 12:42:27;;;;;;;;;;;23.50;40.60;;;;;;5007890;28;20250;-78
2022/07/14 12:44:56;;;;;;;;;;;23.60;39.90;;;;;;5051508;28;19919;-81
2022/07/14 12:47:23;;;;;;;;;;;23.70;39.90;;;;;;5058770;28;19954;-81
2022/07/14 12:49:49;;;;;;;;;;;23.60;40.80;;;;;;5025808;28;19939;-81
2022/07/14 12:52:15;;;;;;;;;;;23.60;42.00;;;;;;5013995;28;19909;-81
2022/07/14 12:54:41;;;;;;;;;;;23.60;40.70;;;;;;5008696;28;19963;-80
2022/07/14 12:57:17;;;;;;;;;;;23.60;40.30;;;;;;5009597;28;19932;-81
2022/07/14 12:59:43;;;;;;;;;;;23.50;41.00;;;;;;5021087;28;19910;-81
2022/07/14 13:02:10;;;;;;;;;;;23.50;41.10;;;;;;5034610;28;19909;-81
2022/07/14 13:04:35;;;;;;;;;;;23.60;41.00;;;;;;5038801;28;19920;-81
2022/07/14 13:07:15;;;;;;;;;;;23.70;40.60;;;;;;5021277;28;19952;-81
2022/07/14 13:10:00;;;;;;;;;;;23.50;41.10;;;;;;5032602;28;19917;-80
2022/07/14 13:12:27;;;;;;;;;;;23.40;41.60;;;;;;5016205;28;19923;-80
2022/07/14 13:15:00;;;;;;;;;;;23.20;41.90;;;;;;5014400;28;20350;-80
2022/07/14 13:17:44;;;;;;;;;;;23.40;41.10;;;;;;5019329;28;19928;-80
2022/07/14 13:20:28;;;;;;;;;;;23.60;40.50;;;;;;5020179;28;19924;-80
2022/07/14 13:22:57;;;;;;;;;;;23.60;40.50;;;;;;5032091;28;19913;-81
2022/07/14 13:25:22;;;;;;;;;;;23.80;40.90;;;;;;5024319;28;20557;-80
2022/07/14 13:27:48;;;;;;;;;;;23.90;39.80;;;;;;5032371;28;20051;-81
2022/07/14 13:30:13;;;;;;;;;;;23.60;40.70;;;;;;5031312;28;19916;-80
2022/07/14 13:32:39;;;;;;;;;;;23.70;41.10;;;;;;5006050;28;19993;-80
2022/07/14 13:35:04;;;;;;;;;;;23.90;40.60;;;;;;5020921;28;19909;-80
2022/07/14 13:37:30;;;;;;;;;;;24.00;40.40;;;;;;5023399;28;19913;-80
2022/07/14 13:39:55;;;;;;;;;;;24.10;39.50;;;;;;5021136;28;20420;-80
2022/07/14 13:42:21;;;;;;;;;;;24.30;39.90;;;;;;5040342;28;19916;-80
2022/07/14 13:44:46;;;;;;;;;;;24.30;39.10;;;;;;5022858;28;19909;-80
2022/07/14 13:47:12;;;;;;;;;;;24.50;39.80;;;;;;5020593;28;19936;-80
2022/07/14 13:52:21;;;;;;;;;;;24.40;39.40;;;;;;5051905;28;20289;-81
2022/07/14 13:54:47;;;;;;;;;;;24.20;39.50;;;;;;5043295;28;19913;-80
2022/07/14 13:57:13;;;;;;;;;;;24.30;40.40;;;;;;5018497;28;19913;-80
2022/07/14 13:59:39;;;;;;;;;;;24.20;39.90;;;;;;5018208;28;19909;-80
2022/07/14 14:02:04;;;;;;;;;;;23.90;40.40;;;;;;5013081;28;19913;-79
2022/07/14 14:04:30;;;;;;;;;;;23.80;41.40;;;;;;5012700;28;19925;-80
2022/07/14 14:06:56;;;;;;;;;;;23.60;40.40;;;;;;5015305;28;19929;-80
2022/07/14 14:09:27;;;;;;;;;;;23.50;41.00;;;;;;5028628;28;19917;-80
2022/07/14 14:11:53;;;;;;;;;;;23.30;42.10;;;;;;5006458;28;20266;-80
2022/07/14 14:14:19;;;;;;;;;;;23.30;42.10;;;;;;5002655;28;19909;-81
2022/07/14 14:16:44;;;;;;;;;;;23.20;42.60;;;;;;5036835;28;19963;-80
2022/07/14 14:19:10;;;;;;;;;;;23.50;42.40;;;;;;5039822;28;19944;-81
2022/07/14 14:21:36;;;;;;;;;;;23.60;42.50;;;;;;5001787;28;19922;-80
2022/07/14 14:24:01;;;;;;;;;;;23.60;41.50;;;;;;5011015;28;20273;-80
2022/07/14 14:26:27;;;;;;;;;;;23.60;42.30;;;;;;4997418;28;19976;-78
2022/07/14 14:28:52;;;;;;;;;;;23.60;41.40;;;;;;5009353;28;19923;-80
2022/07/14 14:31:18;;;;;;;;;;;23.50;41.00;;;;;;5040762;28;20036;-79